Time;durP1;ratioP1;P1;durP2;ratioP2;P2;SDS_P1;SDS_P2;PMS_P1;PMS_P2;Temp;Humidity;BMP_temperature;BMP_pressure;BME280_temperature;BME280_humidity;BME280_pressure;Samples;Min_cycle;Max_cycle;Signal;HPM_P1;HPM_P2
2023/01/09 00:00:17;;;;;;;9.27;8.33;;;7.20;99.90;;;;;;4996252;28;20603;-70
2023/01/09 00:02:43;;;;;;;7.53;6.80;;;7.20;99.90;;;;;;5002967;28;20294;-71
2023/01/09 00:05:13;;;;;;;8.80;7.10;;;7.20;99.90;;;;;;4995804;28;20525;-71
2023/01/09 00:07:39;;;;;;;7.50;6.63;;;7.20;99.90;;;;;;5001069;28;20191;-71
2023/01/09 00:10:06;;;;;;;7.60;6.37;;;7.20;99.90;;;;;;5001718;28;20810;-71
2023/01/09 00:12:32;;;;;;;7.73;6.07;;;7.20;99.90;;;;;;5001748;28;20219;-71
2023/01/09 00:14:57;;;;;;;5.40;4.90;;;7.30;99.90;;;;;;4999614;28;20551;-71
2023/01/09 00:17:24;;;;;;;5.57;5.07;;;7.30;99.90;;;;;;4999192;28;20557;-71
2023/01/09 00:19:49;;;;;;;4.60;4.20;;;7.30;99.90;;;;;;4993402;28;20194;-71
2023/01/09 00:22:15;;;;;;;4.30;3.73;;;7.30;99.90;;;;;;4998086;28;20470;-71
2023/01/09 00:24:40;;;;;;;4.60;4.27;;;7.30;99.90;;;;;;5000203;28;20622;-70
2023/01/09 00:27:06;;;;;;;4.80;4.40;;;7.30;99.90;;;;;;4999216;28;20588;-70
2023/01/09 00:29:31;;;;;;;4.17;3.73;;;7.30;99.90;;;;;;5000092;28;20180;-71
2023/01/09 00:31:57;;;;;;;6.47;4.30;;;7.30;99.90;;;;;;4999439;28;20537;-69
2023/01/09 00:34:23;;;;;;;3.97;3.50;;;7.40;99.90;;;;;;5001224;28;20558;-71
2023/01/09 00:36:53;;;;;;;4.70;4.20;;;7.40;99.90;;;;;;4998471;28;20187;-70
2023/01/09 00:39:20;;;;;;;5.40;4.50;;;7.40;99.90;;;;;;4995572;28;20434;-71
2023/01/09 00:41:47;;;;;;;3.70;3.40;;;7.30;99.90;;;;;;5004164;28;20504;-70
2023/01/09 00:44:26;;;;;;;4.10;3.70;;;7.40;99.90;;;;;;5001974;28;20477;-69
2023/01/09 00:46:57;;;;;;;3.50;3.20;;;7.40;99.90;;;;;;4997019;28;20438;-71
2023/01/09 00:49:23;;;;;;;3.13;2.83;;;7.40;99.90;;;;;;4992168;28;20504;-71
2023/01/09 00:51:49;;;;;;;2.87;2.67;;;7.30;99.90;;;;;;5002991;28;20453;-71
2023/01/09 00:54:17;;;;;;;3.53;3.23;;;7.40;99.90;;;;;;5002604;28;20448;-70
2023/01/09 00:56:43;;;;;;;3.23;2.90;;;7.40;99.90;;;;;;4999719;28;20592;-71
2023/01/09 00:59:09;;;;;;;3.67;3.03;;;7.40;99.90;;;;;;4998047;28;20538;-70
2023/01/09 01:01:35;;;;;;;3.13;2.20;;;7.40;99.90;;;;;;5001061;28;20208;-70
2023/01/09 01:07:37;;;;;;;3.30;2.50;;;7.40;99.90;;;;;;4997281;28;20729;-69
2023/01/09 01:09:30;;;;;;;2.30;2.10;;;7.40;99.90;;;;;;5000789;28;20512;-69
2023/01/09 01:11:55;;;;;;;2.87;2.03;;;7.50;99.90;;;;;;5002996;28;20469;-70
2023/01/09 01:14:21;;;;;;;1.70;1.60;;;7.40;99.90;;;;;;4990907;28;20613;-70
2023/01/09 01:16:46;;;;;;;3.50;1.57;;;7.40;99.90;;;;;;5000924;28;20179;-71
2023/01/09 01:19:12;;;;;;;1.97;1.67;;;7.40;99.90;;;;;;4995889;28;20191;-68
2023/01/09 01:21:37;;;;;;;1.20;1.10;;;7.40;99.90;;;;;;4995100;28;20238;-70
2023/01/09 01:24:03;;;;;;;2.13;1.57;;;7.40;99.90;;;;;;4997479;28;20203;-71
2023/01/09 01:26:29;;;;;;;1.87;1.43;;;7.40;99.90;;;;;;5003889;28;20182;-70
2023/01/09 01:28:54;;;;;;;1.70;1.60;;;7.40;99.90;;;;;;5000729;28;20192;-71
2023/01/09 01:31:20;;;;;;;2.63;1.90;;;7.40;99.90;;;;;;5003140;28;20203;-70
2023/01/09 01:33:45;;;;;;;1.30;1.20;;;7.30;99.90;;;;;;5002630;28;20245;-69
2023/01/09 01:36:11;;;;;;;1.33;1.23;;;7.40;99.90;;;;;;5002255;28;20187;-70
2023/01/09 01:38:37;;;;;;;1.33;1.23;;;7.30;99.90;;;;;;5003682;28;20645;-70
2023/01/09 01:41:03;;;;;;;1.63;1.20;;;7.40;99.90;;;;;;4997433;28;20206;-68
2023/01/09 01:43:52;;;;;;;1.57;1.17;;;7.30;99.90;;;;;;4999220;28;20837;-70
2023/01/09 01:46:18;;;;;;;1.20;1.10;;;7.30;99.90;;;;;;5005828;28;20983;-71
2023/01/09 01:48:46;;;;;;;1.23;1.13;;;7.30;99.90;;;;;;5000556;28;20514;-70
2023/01/09 01:51:15;;;;;;;2.87;1.87;;;7.20;99.90;;;;;;5002314;28;20637;-70
2023/01/09 01:53:44;;;;;;;2.13;1.43;;;7.20;99.90;;;;;;5002104;28;20441;-71
2023/01/09 01:56:17;;;;;;;1.37;1.27;;;7.10;99.90;;;;;;5000922;28;20439;-70
2023/01/09 01:58:48;;;;;;;1.13;1.07;;;7.20;99.90;;;;;;5002183;28;20783;-71
2023/01/09 02:01:15;;;;;;;2.97;1.10;;;7.20;99.90;;;;;;5002114;28;20515;-70
2023/01/09 02:03:42;;;;;;;1.30;1.20;;;7.20;99.90;;;;;;5002225;28;20470;-71
2023/01/09 02:06:08;;;;;;;1.20;1.10;;;7.20;99.90;;;;;;5000809;28;20801;-70
2023/01/09 02:08:34;;;;;;;1.00;0.80;;;7.20;99.90;;;;;;5000425;28;20442;-70
2023/01/09 02:11:01;;;;;;;0.87;0.80;;;7.20;99.90;;;;;;5009822;28;20782;-70
2023/01/09 02:13:27;;;;;;;1.20;0.90;;;7.20;99.90;;;;;;5001251;28;20661;-69
2023/01/09 02:16:09;;;;;;;1.33;0.97;;;7.20;99.90;;;;;;5009434;28;20536;-70
2023/01/09 02:18:47;;;;;;;3.53;1.10;;;7.20;99.90;;;;;;4997021;28;20434;-70
2023/01/09 02:21:16;;;;;;;2.50;1.00;;;7.20;99.90;;;;;;5003940;28;20493;-72
2023/01/09 02:23:56;;;;;;;1.00;0.90;;;7.20;99.90;;;;;;4999818;28;20470;-70
2023/01/09 02:26:53;;;;;;;2.90;1.40;;;7.20;99.90;;;;;;4998581;28;20433;-70
2023/01/09 02:29:25;;;;;;;1.10;1.00;;;7.10;99.90;;;;;;4996839;28;20782;-70
2023/01/09 02:31:55;;;;;;;3.53;1.47;;;7.10;99.90;;;;;;5001764;28;20462;-69
2023/01/09 02:34:31;;;;;;;1.53;1.30;;;7.10;99.90;;;;;;4995667;28;20438;-69
2023/01/09 02:37:16;;;;;;;2.17;1.40;;;7.10;99.90;;;;;;4998456;28;20437;-70
2023/01/09 02:39:50;;;;;;;1.47;1.20;;;7.10;99.90;;;;;;5001459;28;20959;-70
2023/01/09 02:42:25;;;;;;;1.30;1.20;;;7.20;99.90;;;;;;4989586;28;20970;-71
2023/01/09 02:44:51;;;;;;;1.20;1.00;;;7.10;99.90;;;;;;4985040;28;20494;-69
2023/01/09 02:47:17;;;;;;;0.80;0.80;;;7.10;99.90;;;;;;4974722;28;20420;-70
2023/01/09 02:49:46;;;;;;;1.50;1.40;;;7.10;99.90;;;;;;4974036;28;20419;-70
2023/01/09 02:52:40;;;;;;;0.90;0.90;;;7.20;99.90;;;;;;4974738;28;20211;-70
2023/01/09 02:55:09;;;;;;;0.80;0.80;;;7.10;99.90;;;;;;4994094;28;20433;-70
2023/01/09 02:57:53;;;;;;;3.23;0.60;;;7.20;99.90;;;;;;4993947;28;20826;-70
2023/01/09 03:00:40;;;;;;;1.10;1.00;;;7.20;99.90;;;;;;4993351;28;20411;-70
2023/01/09 03:03:24;;;;;;;0.70;0.70;;;7.20;99.90;;;;;;4993869;28;20541;-70
2023/01/09 03:05:59;;;;;;;5.10;1.00;;;7.10;99.90;;;;;;4993895;28;20443;-69
2023/01/09 03:08:36;;;;;;;1.50;0.90;;;7.10;99.90;;;;;;4993682;28;20950;-70
2023/01/09 03:11:06;;;;;;;1.13;0.63;;;7.10;99.90;;;;;;4997878;28;20495;-70
2023/01/09 03:13:45;;;;;;;1.33;0.63;;;7.10;99.90;;;;;;5001557;28;20443;-69
2023/01/09 03:16:17;;;;;;;0.60;0.53;;;7.10;99.90;;;;;;4997511;28;20436;-70
2023/01/09 03:18:44;;;;;;;1.13;0.60;;;7.00;99.90;;;;;;4997902;28;20427;-69
2023/01/09 03:21:10;;;;;;;0.70;0.60;;;7.00;99.90;;;;;;4986062;28;20546;-70
2023/01/09 03:23:47;;;;;;;1.73;1.20;;;7.00;99.90;;;;;;4998838;28;20830;-70
2023/01/09 03:26:13;;;;;;;0.60;0.60;;;6.90;99.90;;;;;;4997699;28;20536;-70
2023/01/09 03:28:38;;;;;;;0.60;0.60;;;6.90;99.90;;;;;;5002846;28;20485;-70
2023/01/09 03:31:04;;;;;;;0.63;0.50;;;6.90;99.90;;;;;;5002795;28;20203;-70
2023/01/09 03:33:29;;;;;;;0.70;0.50;;;6.80;99.90;;;;;;5001075;28;20183;-69
2023/01/09 03:35:55;;;;;;;0.57;0.40;;;6.80;99.90;;;;;;4999393;28;20798;-70
2023/01/09 03:38:20;;;;;;;0.50;0.50;;;6.70;99.90;;;;;;4998817;28;20302;-70
2023/01/09 03:40:46;;;;;;;4.20;2.00;;;6.70;99.90;;;;;;5009163;28;20211;-70
2023/01/09 03:43:11;;;;;;;1.07;0.50;;;6.70;99.90;;;;;;5012102;28;20638;-69
2023/01/09 03:45:37;;;;;;;0.40;0.40;;;6.70;99.90;;;;;;4993086;28;20258;-70
2023/01/09 03:48:02;;;;;;;0.63;0.60;;;6.70;99.90;;;;;;4992250;28;20195;-71
2023/01/09 03:50:28;;;;;;;0.80;0.50;;;6.70;99.90;;;;;;4992338;28;20566;-69
2023/01/09 03:52:53;;;;;;;0.50;0.40;;;6.70;99.90;;;;;;4992917;28;20184;-70
2023/01/09 03:55:19;;;;;;;0.60;0.47;;;6.70;99.90;;;;;;4992839;28;20180;-70
2023/01/09 03:57:44;;;;;;;0.50;0.50;;;6.70;99.90;;;;;;4993006;28;20234;-70
2023/01/09 04:00:11;;;;;;;0.50;0.50;;;6.70;99.90;;;;;;4992135;28;20174;-69
2023/01/09 04:02:36;;;;;;;0.47;0.40;;;6.70;99.90;;;;;;4992502;28;20195;-70
2023/01/09 04:05:02;;;;;;;0.60;0.57;;;6.80;99.90;;;;;;4992719;28;20458;-70
2023/01/09 04:07:27;;;;;;;1.50;0.80;;;6.80;99.90;;;;;;4992754;28;20176;-72
2023/01/09 04:09:53;;;;;;;0.57;0.57;;;6.90;99.90;;;;;;4997356;28;20254;-68
2023/01/09 04:12:18;;;;;;;0.40;0.40;;;6.90;99.90;;;;;;4999128;28;20239;-72
2023/01/09 04:14:43;;;;;;;0.77;0.60;;;6.80;99.90;;;;;;5002346;28;20688;-70
2023/01/09 04:17:09;;;;;;;0.60;0.50;;;6.80;99.90;;;;;;4998519;28;20185;-69
2023/01/09 04:19:35;;;;;;;0.60;0.50;;;6.80;99.90;;;;;;4998740;28;20186;-69
2023/01/09 04:22:00;;;;;;;0.60;0.50;;;6.80;99.90;;;;;;4999808;28;20208;-73
2023/01/09 04:24:27;;;;;;;0.50;0.40;;;6.70;99.90;;;;;;4998100;28;20265;-68
2023/01/09 04:26:52;;;;;;;0.70;0.50;;;6.70;99.90;;;;;;5003159;28;20198;-72
2023/01/09 04:29:18;;;;;;;0.60;0.57;;;6.60;99.90;;;;;;5002897;28;20437;-73
2023/01/09 04:31:43;;;;;;;0.50;0.43;;;6.60;99.90;;;;;;5000940;28;20680;-73
2023/01/09 04:34:09;;;;;;;3.47;0.40;;;6.40;99.90;;;;;;4995061;28;20185;-72
2023/01/09 04:36:35;;;;;;;0.50;0.40;;;6.30;99.90;;;;;;4997405;28;20188;-72
2023/01/09 04:39:00;;;;;;;0.40;0.40;;;6.20;99.90;;;;;;5002327;28;20269;-72
2023/01/09 04:44:10;;;;;;;0.60;0.60;;;6.10;99.90;;;;;;5001667;28;20632;-72
2023/01/09 04:46:36;;;;;;;1.23;0.50;;;6.00;99.90;;;;;;4999642;28;20466;-72
2023/01/09 04:49:01;;;;;;;1.67;0.50;;;6.00;99.90;;;;;;4998952;28;20195;-72
2023/01/09 04:51:27;;;;;;;0.50;0.40;;;5.90;99.90;;;;;;4999560;28;20191;-72
2023/01/09 04:53:52;;;;;;;0.50;0.47;;;5.90;99.90;;;;;;4999682;28;20183;-72
2023/01/09 04:56:18;;;;;;;1.00;0.70;;;5.90;99.90;;;;;;4996507;28;20560;-72
2023/01/09 04:58:43;;;;;;;8.63;0.80;;;5.80;99.90;;;;;;4996913;28;20207;-72
2023/01/09 05:01:09;;;;;;;0.50;0.40;;;5.80;99.90;;;;;;5007025;28;20234;-70
2023/01/09 05:03:34;;;;;;;0.80;0.63;;;5.80;99.90;;;;;;5003830;28;20237;-72
2023/01/09 05:06:00;;;;;;;4.10;2.63;;;5.80;99.90;;;;;;5003117;28;20229;-71
2023/01/09 05:08:25;;;;;;;0.90;0.53;;;5.70;99.90;;;;;;4999387;28;20183;-72
2023/01/09 05:10:51;;;;;;;2.03;0.50;;;5.70;99.90;;;;;;5006671;28;20237;-72
2023/01/09 05:13:16;;;;;;;1.00;0.50;;;5.70;99.90;;;;;;5007398;28;20183;-71
2023/01/09 05:15:41;;;;;;;2.13;0.70;;;5.70;99.90;;;;;;5004617;28;20186;-70
2023/01/09 05:18:07;;;;;;;1.70;0.50;;;5.70;99.90;;;;;;4995989;28;20187;-70
2023/01/09 05:20:33;;;;;;;0.70;0.57;;;5.60;99.90;;;;;;5001563;28;20551;-70
2023/01/09 05:22:58;;;;;;;1.10;0.70;;;5.60;99.90;;;;;;5006502;28;20218;-69
2023/01/09 05:25:24;;;;;;;0.83;0.67;;;5.50;99.90;;;;;;4998221;28;20179;-70
2023/01/09 05:27:49;;;;;;;2.00;0.50;;;5.50;99.90;;;;;;5004895;28;20629;-71
2023/01/09 05:30:15;;;;;;;6.17;0.70;;;5.50;99.90;;;;;;5001456;28;20180;-70
2023/01/09 05:32:40;;;;;;;0.67;0.67;;;5.40;99.90;;;;;;5001922;28;20282;-69
2023/01/09 05:35:06;;;;;;;1.23;0.70;;;5.40;99.90;;;;;;5007734;28;20257;-70
2023/01/09 05:37:32;;;;;;;4.00;0.60;;;5.40;99.90;;;;;;4997474;28;20278;-71
2023/01/09 05:39:57;;;;;;;2.10;0.60;;;5.40;99.90;;;;;;5004654;28;21011;-69
2023/01/09 05:42:23;;;;;;;1.07;0.60;;;5.30;99.90;;;;;;5004712;28;20684;-69
2023/01/09 05:44:48;;;;;;;0.60;0.60;;;5.30;99.90;;;;;;5002549;28;20246;-69
2023/01/09 05:47:14;;;;;;;2.20;0.60;;;5.30;99.90;;;;;;5000979;28;20184;-69
2023/01/09 05:49:39;;;;;;;1.87;0.57;;;5.30;99.90;;;;;;4995681;28;20188;-70
2023/01/09 05:52:06;;;;;;;2.30;0.50;;;5.30;99.90;;;;;;5005662;28;20191;-69
2023/01/09 05:54:32;;;;;;;1.00;0.70;;;5.30;99.90;;;;;;5005051;28;20266;-69
2023/01/09 05:56:57;;;;;;;1.00;0.70;;;5.20;99.90;;;;;;5002072;28;20531;-70
2023/01/09 05:59:23;;;;;;;0.70;0.70;;;5.20;99.90;;;;;;4995493;28;20191;-70
2023/01/09 06:01:48;;;;;;;1.43;0.60;;;5.20;99.90;;;;;;5004058;28;20203;-70
2023/01/09 06:04:14;;;;;;;3.60;1.00;;;5.10;99.90;;;;;;5005313;28;20214;-68
2023/01/09 06:06:39;;;;;;;1.70;1.60;;;5.10;99.90;;;;;;5002140;28;20188;-70
2023/01/09 06:09:05;;;;;;;6.13;1.37;;;5.00;99.90;;;;;;4985960;28;20172;-70
2023/01/09 06:11:33;;;;;;;1.10;0.87;;;5.00;99.90;;;;;;5008808;28;20233;-72
2023/01/09 06:13:58;;;;;;;0.50;0.50;;;4.90;99.90;;;;;;4996862;28;20186;-70
2023/01/09 06:16:24;;;;;;;1.27;1.10;;;4.90;99.90;;;;;;5005091;28;20430;-74
2023/01/09 06:18:49;;;;;;;1.53;0.80;;;4.90;99.90;;;;;;5000011;28;20932;-72
2023/01/09 06:21:15;;;;;;;0.70;0.70;;;4.90;99.90;;;;;;5001721;28;20198;-69
2023/01/09 06:23:40;;;;;;;0.83;0.70;;;4.90;99.90;;;;;;5003048;28;20210;-71
2023/01/09 06:26:06;;;;;;;3.37;2.27;;;4.80;99.90;;;;;;5001267;28;20179;-71
2023/01/09 06:28:31;;;;;;;0.97;0.70;;;4.80;99.90;;;;;;5000455;28;20950;-70
2023/01/09 06:30:57;;;;;;;1.20;0.70;;;4.70;99.90;;;;;;5005346;28;20225;-70
2023/01/09 06:33:22;;;;;;;0.90;0.70;;;4.70;99.90;;;;;;4998597;28;20215;-70
2023/01/09 06:35:48;;;;;;;0.67;0.67;;;4.70;99.90;;;;;;5002162;28;20242;-69
2023/01/09 06:38:14;;;;;;;2.90;0.90;;;4.70;99.90;;;;;;5000151;28;20190;-70
2023/01/09 06:40:39;;;;;;;1.50;0.97;;;4.60;99.90;;;;;;5003162;28;20184;-69
2023/01/09 06:43:05;;;;;;;1.57;0.80;;;4.60;99.90;;;;;;5005227;28;20238;-69
2023/01/09 06:45:30;;;;;;;0.93;0.70;;;4.60;99.90;;;;;;4995658;28;20190;-70
2023/01/09 06:47:56;;;;;;;3.37;2.20;;;4.60;99.90;;;;;;4999651;28;20187;-69
2023/01/09 06:50:21;;;;;;;4.67;1.40;;;4.70;99.90;;;;;;4998381;28;20179;-70
2023/01/09 06:52:47;;;;;;;1.80;1.30;;;4.70;99.90;;;;;;5004016;28;20554;-70
2023/01/09 06:55:12;;;;;;;2.10;0.77;;;4.80;99.90;;;;;;5003407;28;20629;-70
2023/01/09 06:57:38;;;;;;;3.73;0.90;;;4.80;99.90;;;;;;5002419;28;20183;-69
2023/01/09 07:00:04;;;;;;;2.50;0.97;;;4.80;99.90;;;;;;4991931;28;20184;-71
2023/01/09 07:02:29;;;;;;;3.57;1.50;;;4.80;99.90;;;;;;5000782;28;20242;-71
2023/01/09 07:04:55;;;;;;;2.37;1.10;;;4.90;99.90;;;;;;5003781;28;20552;-69
2023/01/09 07:07:21;;;;;;;0.70;0.50;;;4.90;99.90;;;;;;5003814;28;20187;-69
2023/01/09 07:09:47;;;;;;;4.37;1.70;;;4.90;99.90;;;;;;4993938;28;20178;-72
2023/01/09 07:12:14;;;;;;;5.10;2.60;;;4.90;99.90;;;;;;4999214;28;20986;-72
2023/01/09 07:14:39;;;;;;;4.37;2.53;;;5.00;99.90;;;;;;5002542;28;20442;-72
2023/01/09 07:17:05;;;;;;;3.13;0.70;;;5.00;99.90;;;;;;5003654;28;20445;-73
2023/01/09 07:19:31;;;;;;;0.87;0.70;;;5.00;99.90;;;;;;4994500;28;20179;-72
2023/01/09 07:21:56;;;;;;;3.17;1.90;;;5.10;99.90;;;;;;4999197;28;20212;-72
2023/01/09 07:24:22;;;;;;;5.63;1.67;;;5.00;99.90;;;;;;4998863;28;20214;-73
2023/01/09 07:26:47;;;;;;;2.77;1.00;;;5.00;99.90;;;;;;4995479;28;20171;-72
2023/01/09 07:29:13;;;;;;;2.73;1.47;;;5.10;99.90;;;;;;5000375;28;20184;-71
2023/01/09 07:31:38;;;;;;;4.60;1.00;;;5.10;99.90;;;;;;5001523;28;20282;-72
2023/01/09 07:34:04;;;;;;;1.53;1.27;;;5.10;99.90;;;;;;5002992;28;20179;-72
2023/01/09 07:36:29;;;;;;;3.33;1.40;;;5.10;99.90;;;;;;4999643;28;20200;-73
2023/01/09 07:38:55;;;;;;;1.63;0.87;;;5.00;99.90;;;;;;4997636;28;20172;-70
2023/01/09 07:41:20;;;;;;;1.60;0.97;;;5.00;99.90;;;;;;4998406;28;20661;-71
2023/01/09 07:43:46;;;;;;;2.30;0.90;;;5.00;99.90;;;;;;5002383;28;20213;-72
2023/01/09 07:46:11;;;;;;;2.77;0.90;;;5.10;99.90;;;;;;5002731;28;20194;-72
2023/01/09 07:48:37;;;;;;;2.30;0.80;;;5.20;99.90;;;;;;4996940;28;20547;-71
2023/01/09 07:51:03;;;;;;;5.47;1.20;;;5.10;99.90;;;;;;4997544;28;20899;-72
2023/01/09 07:53:29;;;;;;;1.27;0.70;;;5.10;99.90;;;;;;4992628;28;20175;-72
2023/01/09 07:55:54;;;;;;;1.40;0.80;;;5.10;99.90;;;;;;5002913;28;20442;-73
2023/01/09 07:58:20;;;;;;;2.10;0.80;;;5.10;99.90;;;;;;5002718;28;20191;-72
2023/01/09 08:00:45;;;;;;;1.00;0.90;;;5.10;99.90;;;;;;4999876;28;20179;-71
2023/01/09 08:03:11;;;;;;;1.30;0.90;;;5.30;99.90;;;;;;4999454;28;20247;-72
2023/01/09 08:05:36;;;;;;;3.27;1.00;;;5.60;99.90;;;;;;5000973;28;20187;-73
2023/01/09 08:08:02;;;;;;;2.37;1.57;;;5.90;99.90;;;;;;5003261;28;20604;-72
2023/01/09 08:10:27;;;;;;;3.03;0.73;;;6.30;99.90;;;;;;4993958;28;20274;-72
2023/01/09 08:12:53;;;;;;;3.10;0.90;;;6.70;99.90;;;;;;5001614;28;20553;-73
2023/01/09 08:15:18;;;;;;;1.77;1.20;;;7.00;99.90;;;;;;4999650;28;20187;-73
2023/01/09 08:17:45;;;;;;;1.93;1.00;;;7.40;99.90;;;;;;5002209;28;20234;-72
2023/01/09 08:20:13;;;;;;;2.30;0.80;;;7.90;99.90;;;;;;4995371;28;20254;-73
2023/01/09 08:22:48;;;;;;;4.10;1.00;;;8.10;99.90;;;;;;5001328;28;20474;-73
2023/01/09 08:25:14;;;;;;;1.83;1.50;;;7.80;99.90;;;;;;4999663;28;20892;-74
2023/01/09 08:27:40;;;;;;;3.63;1.03;;;7.60;99.90;;;;;;4999088;28;20442;-73
2023/01/09 08:30:06;;;;;;;3.00;1.10;;;7.30;99.90;;;;;;4994259;28;20187;-73
2023/01/09 08:32:31;;;;;;;1.20;0.97;;;7.60;99.90;;;;;;4996821;28;20541;-72
2023/01/09 08:34:57;;;;;;;2.90;1.10;;;8.20;99.90;;;;;;5006052;28;20537;-73
2023/01/09 08:37:22;;;;;;;1.80;0.77;;;8.90;99.90;;;;;;5003856;28;20552;-73
2023/01/09 08:39:48;;;;;;;3.67;1.00;;;9.20;99.90;;;;;;5006164;28;20205;-70
2023/01/09 08:47:42;;;;;;;1.57;1.00;;;10.60;99.90;;;;;;4998965;28;20500;-73
2023/01/09 08:50:08;;;;;;;1.23;0.90;;;11.50;99.90;;;;;;5000371;28;20434;-72
2023/01/09 08:52:33;;;;;;;1.83;0.90;;;11.80;99.90;;;;;;4999180;28;20207;-72
2023/01/09 08:54:59;;;;;;;2.47;1.17;;;11.50;99.90;;;;;;5003214;28;20438;-73
2023/01/09 08:57:25;;;;;;;2.10;1.10;;;11.60;99.90;;;;;;5000728;28;20191;-72
2023/01/09 08:59:50;;;;;;;3.00;1.10;;;11.70;99.90;;;;;;5003313;28;20548;-73
2023/01/09 09:02:16;;;;;;;1.43;1.20;;;11.80;99.90;;;;;;5002848;28;20472;-71
2023/01/09 09:04:41;;;;;;;2.20;1.27;;;11.80;99.90;;;;;;5000479;28;21003;-73
2023/01/09 09:07:07;;;;;;;3.33;1.30;;;12.20;99.90;;;;;;5002518;28;20180;-73
2023/01/09 09:09:32;;;;;;;7.83;1.43;;;12.60;99.90;;;;;;5002074;28;20183;-71
2023/01/09 09:11:58;;;;;;;1.83;1.20;;;13.00;99.90;;;;;;5002121;28;20214;-73
2023/01/09 09:17:07;;;;;;;1.43;1.00;;;12.50;99.90;;;;;;5001592;28;20198;-72
2023/01/09 09:19:33;;;;;;;3.03;1.80;;;12.90;99.90;;;;;;5001588;28;20952;-73
2023/01/09 09:21:58;;;;;;;1.57;1.13;;;13.30;99.90;;;;;;5005821;28;20576;-72
2023/01/09 09:24:24;;;;;;;2.00;1.20;;;13.60;99.90;;;;;;5004832;28;20225;-73
2023/01/09 09:26:49;;;;;;;1.73;0.97;;;13.70;99.90;;;;;;5001210;28;20186;-73
2023/01/09 09:29:15;;;;;;;2.93;1.10;;;13.60;99.90;;;;;;5000486;28;20271;-73
2023/01/09 09:31:40;;;;;;;2.20;0.90;;;13.30;99.90;;;;;;4994995;28;20731;-72
2023/01/09 09:34:06;;;;;;;2.00;1.33;;;14.10;99.90;;;;;;5002625;28;20196;-73
2023/01/09 09:36:32;;;;;;;4.67;1.10;;;14.40;99.90;;;;;;5003816;28;20271;-73
2023/01/09 09:38:58;;;;;;;1.33;1.23;;;14.20;99.90;;;;;;5005384;28;21025;-73
2023/01/09 09:45:03;;;;;;;2.20;1.23;;;12.60;99.90;;;;;;5000470;28;20205;-73
2023/01/09 09:47:47;;;;;;;4.23;1.40;;;11.80;99.90;;;;;;5002789;28;20441;-73
2023/01/09 09:50:19;;;;;;;2.43;1.20;;;12.30;99.90;;;;;;4996139;28;20442;-71
2023/01/09 09:53:08;;;;;;;2.77;1.30;;;12.50;99.90;;;;;;5000435;28;20813;-73
2023/01/09 09:55:38;;;;;;;1.20;1.00;;;13.00;99.90;;;;;;5003286;28;20970;-72
2023/01/09 09:58:26;;;;;;;3.93;1.83;;;11.90;99.90;;;;;;4999841;28;20441;-74
2023/01/09 10:00:52;;;;;;;2.50;1.40;;;10.80;99.90;;;;;;4994239;28;20431;-74
2023/01/09 10:03:34;;;;;;;2.47;1.40;;;10.30;99.90;;;;;;5001675;28;20471;-74
2023/01/09 10:06:24;;;;;;;2.27;1.30;;;9.80;99.90;;;;;;4992832;28;20517;-74
2023/01/09 10:08:54;;;;;;;1.80;1.10;;;9.30;99.90;;;;;;5001241;28;20443;-73
2023/01/09 10:11:43;;;;;;;3.27;0.83;;;8.70;99.90;;;;;;5001379;28;20482;-72
2023/01/09 10:14:10;;;;;;;3.77;1.00;;;8.40;99.90;;;;;;4994247;28;20519;-74
2023/01/09 10:16:51;;;;;;;1.57;1.10;;;8.40;99.90;;;;;;5003200;28;20442;-70
2023/01/09 10:19:36;;;;;;;3.80;1.20;;;8.30;99.90;;;;;;4996919;28;20964;-72
2023/01/09 10:22:36;;;;;;;8.37;2.20;;;8.50;99.90;;;;;;4992659;28;20461;-74
2023/01/09 10:25:09;;;;;;;3.57;1.30;;;8.40;99.90;;;;;;5000671;28;20979;-74
2023/01/09 10:28:00;;;;;;;2.93;1.37;;;8.20;99.90;;;;;;5002801;28;20430;-73
2023/01/09 10:30:28;;;;;;;5.67;1.50;;;8.20;99.90;;;;;;4995856;28;20477;-72
2023/01/09 10:33:13;;;;;;;3.43;1.30;;;8.20;99.90;;;;;;4990526;28;20454;-73
2023/01/09 10:36:13;;;;;;;2.20;1.40;;;8.20;99.90;;;;;;4999099;28;21023;-73
2023/01/09 10:38:43;;;;;;;6.70;1.13;;;8.10;99.90;;;;;;4995527;28;20443;-74
2023/01/09 10:41:33;;;;;;;3.33;1.40;;;8.10;99.90;;;;;;4998244;28;20457;-74
2023/01/09 10:44:07;;;;;;;2.80;0.90;;;8.10;99.90;;;;;;4989426;28;20895;-72
2023/01/09 10:46:55;;;;;;;3.73;1.20;;;8.10;99.90;;;;;;4999202;28;20509;-72
2023/01/09 10:49:22;;;;;;;5.77;1.50;;;8.10;99.90;;;;;;5003416;28;20434;-74
2023/01/09 10:51:50;;;;;;;3.17;1.17;;;8.10;99.90;;;;;;4998291;28;20461;-74
2023/01/09 10:54:20;;;;;;;2.20;1.40;;;8.20;99.90;;;;;;4999794;28;20443;-74
2023/01/09 10:56:59;;;;;;;9.50;2.10;;;8.10;99.90;;;;;;4995773;28;20454;-72
2023/01/09 10:59:25;;;;;;;4.23;1.40;;;8.20;99.90;;;;;;5003865;28;20951;-74
2023/01/09 11:01:52;;;;;;;5.77;1.23;;;8.20;99.90;;;;;;4993568;28;20524;-74
2023/01/09 11:04:51;;;;;;;2.87;1.30;;;8.30;99.90;;;;;;5000983;28;20223;-74
2023/01/09 11:07:22;;;;;;;4.63;1.67;;;8.20;99.90;;;;;;4964102;28;20442;-72
2023/01/09 11:10:00;;;;;;;6.60;2.50;;;8.20;99.90;;;;;;5000051;28;20951;-74
2023/01/09 11:12:28;;;;;;;4.23;1.70;;;8.20;99.90;;;;;;5001124;28;20482;-71
2023/01/09 11:14:54;;;;;;;3.17;1.60;;;8.40;99.90;;;;;;4992698;28;20438;-71
2023/01/09 11:17:25;;;;;;;2.93;1.37;;;8.50;99.90;;;;;;5003632;28;20445;-71
2023/01/09 11:20:39;;;;;;;3.07;1.60;;;8.50;99.90;;;;;;4998282;28;20530;-71
2023/01/09 11:23:23;;;;;;;2.97;1.60;;;8.50;99.90;;;;;;4992219;28;20472;-71
2023/01/09 11:25:53;;;;;;;2.87;1.70;;;8.60;99.90;;;;;;5000831;28;20946;-71
2023/01/09 11:28:19;;;;;;;3.30;1.07;;;8.70;99.90;;;;;;4996427;28;20447;-71
2023/01/09 11:30:59;;;;;;;1.83;0.93;;;8.70;99.90;;;;;;5002508;28;20439;-72
2023/01/09 11:33:33;;;;;;;3.40;1.20;;;8.80;99.90;;;;;;4995993;28;20630;-71
2023/01/09 11:36:07;;;;;;;1.20;0.80;;;9.70;99.90;;;;;;4998676;28;20446;-70
2023/01/09 11:38:49;;;;;;;5.00;2.00;;;11.40;99.90;;;;;;4998653;28;20543;-71
2023/01/09 11:41:20;;;;;;;2.63;1.17;;;12.20;99.90;;;;;;5002305;28;21119;-71
2023/01/09 11:43:49;;;;;;;3.63;1.60;;;11.80;99.90;;;;;;5003352;28;20466;-71
2023/01/09 11:46:33;;;;;;;4.43;1.77;;;12.00;99.90;;;;;;5004124;28;20433;-71
2023/01/09 11:49:01;;;;;;;2.80;1.37;;;13.60;99.90;;;;;;4997320;28;20435;-71
2023/01/09 11:51:30;;;;;;;2.07;1.20;;;13.20;99.90;;;;;;5000123;28;20513;-72
2023/01/09 11:54:11;;;;;;;9.07;1.87;;;12.80;99.90;;;;;;4998764;28;20931;-71
2023/01/09 11:56:37;;;;;;;2.67;1.10;;;11.40;99.90;;;;;;4994687;28;20438;-71
2023/01/09 11:59:14;;;;;;;4.53;1.07;;;10.50;99.90;;;;;;4993876;28;20801;-70
2023/01/09 12:01:48;;;;;;;3.00;1.10;;;9.90;99.90;;;;;;5000405;28;20818;-71
2023/01/09 12:04:29;;;;;;;5.03;1.60;;;9.60;99.90;;;;;;4997203;28;20476;-72
2023/01/09 12:07:07;;;;;;;7.20;1.33;;;9.60;99.90;;;;;;4996994;28;20434;-75
2023/01/09 12:09:48;;;;;;;1.20;1.10;;;9.70;99.90;;;;;;4993580;28;20528;-71
2023/01/09 12:12:20;;;;;;;4.30;1.57;;;9.60;99.90;;;;;;5002569;28;20481;-70
2023/01/09 12:14:57;;;;;;;6.87;3.10;;;9.30;99.90;;;;;;4992730;28;20435;-70
2023/01/09 12:17:41;;;;;;;3.63;1.70;;;9.10;99.90;;;;;;4995960;28;20439;-70
2023/01/09 12:20:16;;;;;;;4.53;1.63;;;9.00;99.90;;;;;;4986297;28;20438;-69
2023/01/09 12:23:01;;;;;;;2.97;1.20;;;8.90;99.90;;;;;;4998899;28;20545;-70
2023/01/09 12:25:56;;;;;;;1.70;1.30;;;8.90;99.90;;;;;;4994183;28;20474;-70
2023/01/09 12:28:39;;;;;;;4.10;1.30;;;9.10;99.90;;;;;;4999024;28;20438;-69
2023/01/09 12:31:36;;;;;;;3.53;1.00;;;9.00;99.90;;;;;;4995358;28;20828;-69
2023/01/09 12:34:36;;;;;;;2.33;1.10;;;8.90;99.90;;;;;;4990447;28;20616;-70
2023/01/09 12:37:19;;;;;;;5.20;1.70;;;8.80;99.90;;;;;;4990905;28;20480;-70
2023/01/09 12:40:03;;;;;;;1.03;0.93;;;8.90;99.90;;;;;;4996470;28;20464;-72
2023/01/09 12:42:38;;;;;;;3.53;1.43;;;9.10;99.90;;;;;;4996723;28;20450;-70
2023/01/09 12:45:46;;;;;;;5.60;1.87;;;9.30;99.90;;;;;;5002440;28;20465;-70
2023/01/09 12:48:25;;;;;;;1.33;1.13;;;9.20;99.90;;;;;;4998062;28;20443;-73
2023/01/09 12:51:11;;;;;;;4.13;1.83;;;9.10;99.90;;;;;;4990239;28;21032;-70
2023/01/09 12:53:46;;;;;;;5.40;1.63;;;8.90;99.90;;;;;;4995596;28;20449;-72
2023/01/09 12:56:18;;;;;;;2.00;1.03;;;8.80;99.90;;;;;;5000429;28;20468;-72
2023/01/09 12:58:54;;;;;;;1.70;0.80;;;9.80;99.90;;;;;;4998557;28;20439;-70
2023/01/09 13:01:34;;;;;;;5.80;1.50;;;11.00;99.90;;;;;;5003409;28;20484;-70
2023/01/09 13:04:16;;;;;;;3.83;1.70;;;10.80;99.90;;;;;;4997274;28;21638;-71
2023/01/09 13:06:47;;;;;;;5.00;0.90;;;10.20;99.90;;;;;;4999219;28;20470;-71
2023/01/09 13:09:43;;;;;;;4.83;0.97;;;9.70;99.90;;;;;;5000979;28;20441;-70
2023/01/09 13:12:20;;;;;;;3.70;1.10;;;9.40;99.90;;;;;;4996107;28;20481;-70
2023/01/09 13:14:59;;;;;;;1.37;0.80;;;9.20;99.90;;;;;;4988764;28;20434;-71
2023/01/09 13:17:25;;;;;;;2.80;1.23;;;9.00;99.90;;;;;;5003239;28;20438;-70
2023/01/09 13:19:52;;;;;;;1.83;1.00;;;8.70;99.90;;;;;;4999282;28;20437;-70
2023/01/09 13:22:19;;;;;;;2.23;0.87;;;8.40;99.90;;;;;;5001945;28;20247;-72
2023/01/09 13:25:06;;;;;;;3.37;1.20;;;8.30;99.90;;;;;;4997726;28;20467;-71
2023/01/09 13:27:38;;;;;;;1.30;1.10;;;8.30;99.90;;;;;;5008287;28;20935;-70